sensor_id;sensor_type;location;lat;lon;timestamp;P1;durP1;ratioP1;P2;durP2;ratioP2
36303;SDS011;22335;49.800;8.596;2022-10-16T00:01:45;4.75;;;4.45;;
36303;SDS011;22335;49.800;8.596;2022-10-16T00:08:31;6.13;;;4.47;;
36303;SDS011;22335;49.800;8.596;2022-10-16T00:15:19;4.40;;;4.20;;
36303;SDS011;22335;49.800;8.596;2022-10-16T00:22:05;4.65;;;4.22;;
36303;SDS011;22335;49.800;8.596;2022-10-16T00:28:50;4.88;;;4.57;;
36303;SDS011;22335;49.800;8.596;2022-10-16T00:35:38;4.57;;;4.38;;
36303;SDS011;22335;49.800;8.596;2022-10-16T00:42:24;3.92;;;3.67;;
36303;SDS011;22335;49.800;8.596;2022-10-16T00:49:10;4.00;;;3.70;;
36303;SDS011;22335;49.800;8.596;2022-10-16T00:56:02;3.70;;;3.40;;
36303;SDS011;22335;49.800;8.596;2022-10-16T01:02:52;3.78;;;3.30;;
36303;SDS011;22335;49.800;8.596;2022-10-16T01:09:41;3.60;;;3.40;;
36303;SDS011;22335;49.800;8.596;2022-10-16T01:16:43;4.60;;;4.13;;
36303;SDS011;22335;49.800;8.596;2022-10-16T01:23:37;6.15;;;3.60;;
36303;SDS011;22335;49.800;8.596;2022-10-16T01:30:38;3.40;;;3.10;;
36303;SDS011;22335;49.800;8.596;2022-10-16T01:37:29;5.03;;;3.70;;
36303;SDS011;22335;49.800;8.596;2022-10-16T01:44:21;4.30;;;3.95;;
36303;SDS011;22335;49.800;8.596;2022-10-16T01:51:15;4.63;;;4.22;;
36303;SDS011;22335;49.800;8.596;2022-10-16T01:58:03;5.00;;;4.65;;
36303;SDS011;22335;49.800;8.596;2022-10-16T02:04:53;5.10;;;4.60;;
36303;SDS011;22335;49.800;8.596;2022-10-16T02:11:46;4.90;;;4.10;;
36303;SDS011;22335;49.800;8.596;2022-10-16T02:18:32;4.60;;;4.20;;
36303;SDS011;22335;49.800;8.596;2022-10-16T02:25:19;7.13;;;5.33;;
36303;SDS011;22335;49.800;8.596;2022-10-16T02:32:13;5.97;;;5.38;;
36303;SDS011;22335;49.800;8.596;2022-10-16T02:39:04;5.90;;;5.40;;
36303;SDS011;22335;49.800;8.596;2022-10-16T03:06:36;7.38;;;5.45;;
36303;SDS011;22335;49.800;8.596;2022-10-16T03:13:22;6.07;;;5.57;;
36303;SDS011;22335;49.800;8.596;2022-10-16T03:20:08;6.43;;;5.82;;
36303;SDS011;22335;49.800;8.596;2022-10-16T03:33:42;5.28;;;4.82;;
36303;SDS011;22335;49.800;8.596;2022-10-16T03:40:27;11.33;;;5.13;;
36303;SDS011;22335;49.800;8.596;2022-10-16T03:47:16;5.55;;;5.15;;
36303;SDS011;22335;49.800;8.596;2022-10-16T03:54:03;4.60;;;4.30;;
36303;SDS011;22335;49.800;8.596;2022-10-16T04:00:48;5.23;;;4.83;;
36303;SDS011;22335;49.800;8.596;2022-10-16T04:07:36;6.23;;;4.80;;
36303;SDS011;22335;49.800;8.596;2022-10-16T04:14:22;6.32;;;5.15;;
36303;SDS011;22335;49.800;8.596;2022-10-16T04:21:07;7.90;;;4.90;;
36303;SDS011;22335;49.800;8.596;2022-10-16T04:27:55;5.67;;;5.10;;
36303;SDS011;22335;49.800;8.596;2022-10-16T04:34:41;9.98;;;4.38;;
36303;SDS011;22335;49.800;8.596;2022-10-16T04:41:27;7.65;;;4.50;;
36303;SDS011;22335;49.800;8.596;2022-10-16T04:48:15;5.03;;;4.72;;
36303;SDS011;22335;49.800;8.596;2022-10-16T04:55:01;6.35;;;4.18;;
36303;SDS011;22335;49.800;8.596;2022-10-16T05:01:47;6.43;;;4.40;;
36303;SDS011;22335;49.800;8.596;2022-10-16T05:08:35;5.20;;;4.70;;
36303;SDS011;22335;49.800;8.596;2022-10-16T05:15:20;5.28;;;4.80;;
36303;SDS011;22335;49.800;8.596;2022-10-16T05:22:06;5.73;;;4.93;;
36303;SDS011;22335;49.800;8.596;2022-10-16T05:28:54;6.07;;;5.00;;
36303;SDS011;22335;49.800;8.596;2022-10-16T05:35:39;6.78;;;4.57;;
36303;SDS011;22335;49.800;8.596;2022-10-16T05:42:26;5.53;;;4.97;;
36303;SDS011;22335;49.800;8.596;2022-10-16T05:49:14;5.65;;;4.95;;
36303;SDS011;22335;49.800;8.596;2022-10-16T05:55:59;5.88;;;5.13;;
36303;SDS011;22335;49.800;8.596;2022-10-16T06:02:46;5.22;;;4.88;;
36303;SDS011;22335;49.800;8.596;2022-10-16T06:09:34;5.30;;;4.80;;
36303;SDS011;22335;49.800;8.596;2022-10-16T06:16:20;4.70;;;4.30;;
36303;SDS011;22335;49.800;8.596;2022-10-16T06:23:05;4.70;;;4.25;;
36303;SDS011;22335;49.800;8.596;2022-10-16T06:29:53;4.60;;;4.33;;
36303;SDS011;22335;49.800;8.596;2022-10-16T06:36:39;13.80;;;4.93;;
36303;SDS011;22335;49.800;8.596;2022-10-16T06:43:25;5.38;;;4.85;;
36303;SDS011;22335;49.800;8.596;2022-10-16T06:50:15;5.35;;;4.60;;
36303;SDS011;22335;49.800;8.596;2022-10-16T06:57:01;7.10;;;4.40;;
36303;SDS011;22335;49.800;8.596;2022-10-16T07:03:47;7.23;;;4.60;;
36303;SDS011;22335;49.800;8.596;2022-10-16T07:10:35;7.38;;;4.70;;
36303;SDS011;22335;49.800;8.596;2022-10-16T07:17:21;5.07;;;4.57;;
36303;SDS011;22335;49.800;8.596;2022-10-16T07:24:07;4.67;;;4.37;;
36303;SDS011;22335;49.800;8.596;2022-10-16T07:31:02;6.47;;;4.00;;
36303;SDS011;22335;49.800;8.596;2022-10-16T07:37:49;6.50;;;3.88;;
36303;SDS011;22335;49.800;8.596;2022-10-16T07:44:34;7.17;;;4.50;;
36303;SDS011;22335;49.800;8.596;2022-10-16T07:51:24;4.55;;;4.15;;
36303;SDS011;22335;49.800;8.596;2022-10-16T07:58:11;5.85;;;4.20;;
36303;SDS011;22335;49.800;8.596;2022-10-16T08:04:56;4.40;;;4.10;;
36303;SDS011;22335;49.800;8.596;2022-10-16T08:11:46;4.43;;;4.13;;
36303;SDS011;22335;49.800;8.596;2022-10-16T08:18:33;5.13;;;4.13;;
36303;SDS011;22335;49.800;8.596;2022-10-16T08:25:19;5.18;;;4.15;;
36303;SDS011;22335;49.800;8.596;2022-10-16T08:32:07;10.20;;;4.40;;
36303;SDS011;22335;49.800;8.596;2022-10-16T08:38:53;11.32;;;4.88;;
36303;SDS011;22335;49.800;8.596;2022-10-16T08:45:41;10.17;;;5.40;;
36303;SDS011;22335;49.800;8.596;2022-10-16T08:52:41;10.38;;;4.40;;
36303;SDS011;22335;49.800;8.596;2022-10-16T08:59:29;6.57;;;4.53;;
36303;SDS011;22335;49.800;8.596;2022-10-16T09:06:25;5.53;;;4.53;;
36303;SDS011;22335;49.800;8.596;2022-10-16T09:13:26;5.03;;;4.53;;
36303;SDS011;22335;49.800;8.596;2022-10-16T09:20:20;9.73;;;4.70;;
36303;SDS011;22335;49.800;8.596;2022-10-16T09:27:18;5.10;;;4.70;;
36303;SDS011;22335;49.800;8.596;2022-10-16T09:34:09;5.78;;;5.15;;
36303;SDS011;22335;49.800;8.596;2022-10-16T09:41:11;5.43;;;4.60;;
36303;SDS011;22335;49.800;8.596;2022-10-16T09:48:08;4.90;;;4.50;;
36303;SDS011;22335;49.800;8.596;2022-10-16T09:54:59;4.60;;;4.25;;
36303;SDS011;22335;49.800;8.596;2022-10-16T10:01:53;4.85;;;4.45;;
36303;SDS011;22335;49.800;8.596;2022-10-16T10:08:52;4.50;;;4.20;;
36303;SDS011;22335;49.800;8.596;2022-10-16T10:15:46;3.88;;;3.67;;
36303;SDS011;22335;49.800;8.596;2022-10-16T10:22:39;5.38;;;4.47;;
36303;SDS011;22335;49.800;8.596;2022-10-16T10:36:40;4.80;;;3.55;;
36303;SDS011;22335;49.800;8.596;2022-10-16T10:43:30;6.05;;;4.20;;
36303;SDS011;22335;49.800;8.596;2022-10-16T10:50:35;4.53;;;4.13;;
36303;SDS011;22335;49.800;8.596;2022-10-16T10:57:32;4.88;;;3.92;;
36303;SDS011;22335;49.800;8.596;2022-10-16T11:04:31;5.13;;;3.90;;
36303;SDS011;22335;49.800;8.596;2022-10-16T11:11:50;4.20;;;3.80;;
36303;SDS011;22335;49.800;8.596;2022-10-16T11:18:45;4.07;;;3.78;;
36303;SDS011;22335;49.800;8.596;2022-10-16T11:25:38;4.85;;;3.80;;
36303;SDS011;22335;49.800;8.596;2022-10-16T11:32:27;4.25;;;3.95;;
36303;SDS011;22335;49.800;8.596;2022-10-16T11:39:21;5.85;;;4.30;;
36303;SDS011;22335;49.800;8.596;2022-10-16T11:46:11;8.25;;;4.68;;
36303;SDS011;22335;49.800;8.596;2022-10-16T11:53:03;4.10;;;3.78;;
36303;SDS011;22335;49.800;8.596;2022-10-16T11:59:55;5.88;;;4.55;;
36303;SDS011;22335;49.800;8.596;2022-10-16T12:06:53;4.15;;;3.85;;
36303;SDS011;22335;49.800;8.596;2022-10-16T12:13:43;4.20;;;3.90;;
36303;SDS011;22335;49.800;8.596;2022-10-16T12:20:32;4.50;;;4.10;;
36303;SDS011;22335;49.800;8.596;2022-10-16T12:27:21;4.38;;;3.97;;
36303;SDS011;22335;49.800;8.596;2022-10-16T12:34:20;5.88;;;3.92;;
36303;SDS011;22335;49.800;8.596;2022-10-16T12:41:23;5.38;;;4.20;;
36303;SDS011;22335;49.800;8.596;2022-10-16T12:48:20;4.55;;;4.25;;
36303;SDS011;22335;49.800;8.596;2022-10-16T12:55:23;4.65;;;3.95;;
36303;SDS011;22335;49.800;8.596;2022-10-16T13:02:19;4.60;;;4.13;;
36303;SDS011;22335;49.800;8.596;2022-10-16T13:16:44;5.68;;;4.40;;
36303;SDS011;22335;49.800;8.596;2022-10-16T13:23:47;6.72;;;4.95;;
36303;SDS011;22335;49.800;8.596;2022-10-16T13:30:40;4.70;;;4.25;;
36303;SDS011;22335;49.800;8.596;2022-10-16T13:37:28;4.82;;;4.43;;
36303;SDS011;22335;49.800;8.596;2022-10-16T13:44:17;5.25;;;4.70;;
36303;SDS011;22335;49.800;8.596;2022-10-16T13:51:06;4.57;;;4.28;;
36303;SDS011;22335;49.800;8.596;2022-10-16T13:58:04;5.80;;;4.00;;
36303;SDS011;22335;49.800;8.596;2022-10-16T14:04:54;4.82;;;4.13;;
36303;SDS011;22335;49.800;8.596;2022-10-16T14:11:44;7.30;;;4.97;;
36303;SDS011;22335;49.800;8.596;2022-10-16T14:18:32;4.72;;;4.32;;
36303;SDS011;22335;49.800;8.596;2022-10-16T14:25:24;7.43;;;4.68;;
36303;SDS011;22335;49.800;8.596;2022-10-16T14:32:20;4.93;;;4.50;;
36303;SDS011;22335;49.800;8.596;2022-10-16T14:39:14;6.30;;;4.25;;
36303;SDS011;22335;49.800;8.596;2022-10-16T14:46:11;6.05;;;5.43;;
36303;SDS011;22335;49.800;8.596;2022-10-16T14:52:59;7.25;;;5.68;;
36303;SDS011;22335;49.800;8.596;2022-10-16T14:59:44;12.27;;;6.45;;
36303;SDS011;22335;49.800;8.596;2022-10-16T15:06:35;20.15;;;10.73;;
36303;SDS011;22335;49.800;8.596;2022-10-16T15:13:20;19.63;;;9.30;;
36303;SDS011;22335;49.800;8.596;2022-10-16T15:26:54;7.78;;;5.20;;
36303;SDS011;22335;49.800;8.596;2022-10-16T15:33:40;8.02;;;5.53;;
36303;SDS011;22335;49.800;8.596;2022-10-16T15:40:29;6.72;;;6.10;;
36303;SDS011;22335;49.800;8.596;2022-10-16T15:47:17;6.20;;;5.20;;
36303;SDS011;22335;49.800;8.596;2022-10-16T15:54:02;7.90;;;6.35;;
36303;SDS011;22335;49.800;8.596;2022-10-16T16:00:53;5.97;;;5.47;;
36303;SDS011;22335;49.800;8.596;2022-10-16T16:07:45;5.63;;;4.90;;
36303;SDS011;22335;49.800;8.596;2022-10-16T16:14:31;5.10;;;4.40;;
36303;SDS011;22335;49.800;8.596;2022-10-16T16:21:17;7.30;;;6.03;;
36303;SDS011;22335;49.800;8.596;2022-10-16T16:28:05;8.38;;;5.72;;
36303;SDS011;22335;49.800;8.596;2022-10-16T16:34:51;6.63;;;5.45;;
36303;SDS011;22335;49.800;8.596;2022-10-16T16:41:37;8.00;;;5.28;;
36303;SDS011;22335;49.800;8.596;2022-10-16T16:48:25;6.90;;;5.82;;
36303;SDS011;22335;49.800;8.596;2022-10-16T16:55:11;8.75;;;5.97;;
36303;SDS011;22335;49.800;8.596;2022-10-16T17:01:56;9.55;;;6.22;;
36303;SDS011;22335;49.800;8.596;2022-10-16T17:08:45;8.20;;;6.97;;
36303;SDS011;22335;49.800;8.596;2022-10-16T17:15:31;7.20;;;6.43;;
36303;SDS011;22335;49.800;8.596;2022-10-16T17:22:16;7.65;;;6.88;;
36303;SDS011;22335;49.800;8.596;2022-10-16T17:29:05;11.80;;;7.78;;
36303;SDS011;22335;49.800;8.596;2022-10-16T17:35:51;7.50;;;6.63;;
36303;SDS011;22335;49.800;8.596;2022-10-16T17:42:36;8.85;;;7.95;;
36303;SDS011;22335;49.800;8.596;2022-10-16T17:49:24;8.15;;;7.20;;
36303;SDS011;22335;49.800;8.596;2022-10-16T17:56:10;12.38;;;6.40;;
36303;SDS011;22335;49.800;8.596;2022-10-16T18:02:57;6.50;;;5.78;;
36303;SDS011;22335;49.800;8.596;2022-10-16T18:09:45;6.65;;;6.15;;
36303;SDS011;22335;49.800;8.596;2022-10-16T18:16:51;11.10;;;7.57;;
36303;SDS011;22335;49.800;8.596;2022-10-16T18:23:37;9.30;;;7.60;;
36303;SDS011;22335;49.800;8.596;2022-10-16T18:30:35;9.07;;;7.28;;
36303;SDS011;22335;49.800;8.596;2022-10-16T18:37:20;9.90;;;8.02;;
36303;SDS011;22335;49.800;8.596;2022-10-16T18:44:07;17.23;;;7.82;;
36303;SDS011;22335;49.800;8.596;2022-10-16T18:51:04;7.15;;;6.35;;
36303;SDS011;22335;49.800;8.596;2022-10-16T18:57:51;6.78;;;5.95;;
36303;SDS011;22335;49.800;8.596;2022-10-16T19:04:38;6.53;;;5.90;;
36303;SDS011;22335;49.800;8.596;2022-10-16T19:11:26;8.63;;;5.53;;
36303;SDS011;22335;49.800;8.596;2022-10-16T19:18:11;12.30;;;6.18;;
36303;SDS011;22335;49.800;8.596;2022-10-16T19:24:57;7.35;;;5.53;;
36303;SDS011;22335;49.800;8.596;2022-10-16T19:31:45;9.75;;;5.90;;
36303;SDS011;22335;49.800;8.596;2022-10-16T19:38:31;9.93;;;6.65;;
36303;SDS011;22335;49.800;8.596;2022-10-16T19:45:16;10.23;;;7.05;;
36303;SDS011;22335;49.800;8.596;2022-10-16T19:52:04;11.50;;;6.47;;
36303;SDS011;22335;49.800;8.596;2022-10-16T19:58:50;13.07;;;7.10;;
36303;SDS011;22335;49.800;8.596;2022-10-16T20:05:37;9.40;;;6.50;;
36303;SDS011;22335;49.800;8.596;2022-10-16T20:12:25;10.23;;;6.53;;
36303;SDS011;22335;49.800;8.596;2022-10-16T20:19:10;9.93;;;6.20;;
36303;SDS011;22335;49.800;8.596;2022-10-16T20:25:56;13.23;;;6.15;;
36303;SDS011;22335;49.800;8.596;2022-10-16T20:32:48;8.57;;;6.00;;
36303;SDS011;22335;49.800;8.596;2022-10-16T20:39:34;12.82;;;6.85;;
36303;SDS011;22335;49.800;8.596;2022-10-16T20:46:20;16.30;;;13.00;;
36303;SDS011;22335;49.800;8.596;2022-10-16T20:53:10;13.48;;;11.23;;
36303;SDS011;22335;49.800;8.596;2022-10-16T20:59:56;12.70;;;9.35;;
36303;SDS011;22335;49.800;8.596;2022-10-16T21:06:42;10.07;;;7.65;;
36303;SDS011;22335;49.800;8.596;2022-10-16T21:13:30;13.07;;;7.97;;
36303;SDS011;22335;49.800;8.596;2022-10-16T21:20:16;9.98;;;7.47;;
36303;SDS011;22335;49.800;8.596;2022-10-16T21:27:01;10.20;;;7.30;;
36303;SDS011;22335;49.800;8.596;2022-10-16T21:33:50;18.08;;;10.07;;
36303;SDS011;22335;49.800;8.596;2022-10-16T21:40:36;18.30;;;16.40;;
36303;SDS011;22335;49.800;8.596;2022-10-16T21:47:22;16.63;;;9.50;;
36303;SDS011;22335;49.800;8.596;2022-10-16T22:01:04;9.50;;;7.15;;
36303;SDS011;22335;49.800;8.596;2022-10-16T22:07:51;7.95;;;6.28;;
36303;SDS011;22335;49.800;8.596;2022-10-16T22:14:39;9.13;;;7.30;;
36303;SDS011;22335;49.800;8.596;2022-10-16T22:21:24;8.20;;;6.63;;
36303;SDS011;22335;49.800;8.596;2022-10-16T22:28:12;10.27;;;7.30;;
36303;SDS011;22335;49.800;8.596;2022-10-16T22:35:01;11.80;;;7.10;;
36303;SDS011;22335;49.800;8.596;2022-10-16T22:41:46;7.43;;;6.63;;
36303;SDS011;22335;49.800;8.596;2022-10-16T22:48:32;8.63;;;6.80;;
36303;SDS011;22335;49.800;8.596;2022-10-16T22:55:20;10.18;;;7.25;;
36303;SDS011;22335;49.800;8.596;2022-10-16T23:02:06;8.77;;;6.82;;
36303;SDS011;22335;49.800;8.596;2022-10-16T23:08:51;13.63;;;7.67;;
36303;SDS011;22335;49.800;8.596;2022-10-16T23:15:41;8.02;;;6.82;;
36303;SDS011;22335;49.800;8.596;2022-10-16T23:22:28;8.07;;;7.03;;
36303;SDS011;22335;49.800;8.596;2022-10-16T23:29:13;7.47;;;6.77;;
36303;SDS011;22335;49.800;8.596;2022-10-16T23:36:02;9.80;;;6.80;;
36303;SDS011;22335;49.800;8.596;2022-10-16T23:42:50;9.05;;;6.57;;
36303;SDS011;22335;49.800;8.596;2022-10-16T23:49:35;11.13;;;6.97;;
36303;SDS011;22335;49.800;8.596;2022-10-16T23:56:23;11.30;;;7.07;;
